createdAt,value
2023-02-11T00:01:51.532Z,16.90
2023-02-11T00:04:18.156Z,20.55
2023-02-11T00:06:44.807Z,22.83
2023-02-11T00:09:11.538Z,17.73
2023-02-11T00:11:38.168Z,26.42
2023-02-11T00:14:08.404Z,27.70
2023-02-11T00:16:35.080Z,15.95
2023-02-11T00:19:03.319Z,27.27
2023-02-11T00:21:30.291Z,19.08
2023-02-11T00:24:00.255Z,20.98
2023-02-11T00:26:30.029Z,17.70
2023-02-11T00:28:57.261Z,11.00
2023-02-11T00:31:24.904Z,8.03
2023-02-11T00:33:52.029Z,17.38
2023-02-11T00:36:21.757Z,15.13
2023-02-11T00:38:50.002Z,13.52
2023-02-11T00:41:17.277Z,16.75
2023-02-11T00:43:44.223Z,16.17
2023-02-11T00:46:11.588Z,11.05
2023-02-11T00:48:38.242Z,19.85
2023-02-11T00:51:05.353Z,21.13
2023-02-11T00:53:33.799Z,18.45
2023-02-11T00:56:01.236Z,11.27
2023-02-11T00:58:28.830Z,16.08
2023-02-11T01:00:55.959Z,28.83
2023-02-11T01:03:22.565Z,11.50
2023-02-11T01:05:49.429Z,24.40
2023-02-11T01:08:16.247Z,15.93
2023-02-11T01:10:44.010Z,32.63
2023-02-11T01:13:10.873Z,18.65
2023-02-11T01:15:37.594Z,26.33
2023-02-11T01:18:05.808Z,22.15
2023-02-11T01:20:32.424Z,22.10
2023-02-11T01:22:58.959Z,10.30
2023-02-11T01:25:25.620Z,21.88
2023-02-11T01:27:52.129Z,24.23
2023-02-11T01:30:18.811Z,19.25
2023-02-11T01:32:45.355Z,22.73
2023-02-11T01:35:11.904Z,18.90
2023-02-11T01:37:38.616Z,16.83
2023-02-11T01:40:11.285Z,27.73
2023-02-11T01:42:37.984Z,20.63
2023-02-11T01:45:42.031Z,14.33
2023-02-11T01:48:13.206Z,16.85
2023-02-11T01:50:43.064Z,13.65
2023-02-11T01:53:29.644Z,15.55
2023-02-11T01:56:15.919Z,19.08
2023-02-11T01:58:45.830Z,15.13
2023-02-11T02:01:18.146Z,19.05
2023-02-11T02:03:48.453Z,15.68
2023-02-11T02:06:26.848Z,19.13
2023-02-11T02:09:00.911Z,19.08
2023-02-11T02:11:27.644Z,16.63
2023-02-11T02:13:54.354Z,20.23
2023-02-11T02:16:26.394Z,21.38
2023-02-11T02:19:11.491Z,16.83
2023-02-11T02:22:05.822Z,17.73
2023-02-11T02:24:56.803Z,28.07
2023-02-11T02:27:45.374Z,26.35
2023-02-11T02:30:41.403Z,21.85
2023-02-11T02:33:23.125Z,19.63
2023-02-11T02:36:11.433Z,20.50
2023-02-11T02:38:40.913Z,20.40
2023-02-11T02:41:11.347Z,18.55
2023-02-11T02:43:41.719Z,23.95
2023-02-11T02:46:29.180Z,19.13
2023-02-11T02:48:57.523Z,18.90
2023-02-11T02:51:42.461Z,26.47
2023-02-11T02:54:29.392Z,22.45
2023-02-11T02:57:30.915Z,15.15
2023-02-11T03:00:28.489Z,33.28
2023-02-11T03:03:43.280Z,20.55
2023-02-11T03:06:25.582Z,21.30
2023-02-11T03:09:12.687Z,24.83
2023-02-11T03:11:40.424Z,19.40
2023-02-11T03:14:11.215Z,16.63
2023-02-11T03:16:39.616Z,25.67
2023-02-11T03:19:28.847Z,20.57
2023-02-11T03:21:57.462Z,19.10
2023-02-11T03:24:30.632Z,21.55
2023-02-11T03:27:04.971Z,20.85
2023-02-11T03:29:35.156Z,12.82
2023-02-11T03:32:17.652Z,20.30
2023-02-11T03:34:54.889Z,24.10
2023-02-11T03:37:32.733Z,29.48
2023-02-11T03:40:11.428Z,18.48
2023-02-11T03:42:53.512Z,21.27
2023-02-11T03:45:23.892Z,16.37
2023-02-11T03:48:00.557Z,17.50
2023-02-11T03:50:30.265Z,25.92
2023-02-11T03:52:59.393Z,27.98
2023-02-11T03:55:28.155Z,16.85
2023-02-11T03:57:54.985Z,19.57
2023-02-11T04:00:21.907Z,28.20
2023-02-11T04:02:49.069Z,20.83
2023-02-11T04:05:16.479Z,26.00
2023-02-11T04:07:43.108Z,19.50
2023-02-11T04:10:11.165Z,21.37
2023-02-11T04:12:37.867Z,19.88
2023-02-11T04:15:05.371Z,35.70
2023-02-11T04:17:32.149Z,29.27
2023-02-11T04:19:58.855Z,27.70
2023-02-11T04:22:25.650Z,27.43
2023-02-11T04:24:52.233Z,22.85
2023-02-11T04:27:19.097Z,28.70
2023-02-11T04:29:45.848Z,29.30
2023-02-11T04:32:12.756Z,32.38
2023-02-11T04:34:39.831Z,24.43
2023-02-11T04:37:07.112Z,27.48
2023-02-11T04:39:34.545Z,29.08
2023-02-11T04:42:01.368Z,23.55
2023-02-11T04:44:28.090Z,30.95
2023-02-11T04:46:54.753Z,26.23
2023-02-11T04:49:21.382Z,23.65
2023-02-11T04:51:49.523Z,28.88
2023-02-11T04:54:16.662Z,34.80
2023-02-11T04:56:43.350Z,45.40
2023-02-11T04:59:10.193Z,35.17
2023-02-11T05:01:36.891Z,30.83
2023-02-11T05:04:03.875Z,34.42
2023-02-11T05:06:30.630Z,57.03
2023-02-11T05:08:57.946Z,30.50
2023-02-11T05:11:25.966Z,48.13
2023-02-11T05:13:52.862Z,43.85
2023-02-11T05:16:19.747Z,30.25
2023-02-11T05:18:46.543Z,36.88
2023-02-11T05:21:16.575Z,43.25
2023-02-11T05:23:43.940Z,51.20
2023-02-11T05:26:11.610Z,27.98
2023-02-11T05:28:39.043Z,38.33
2023-02-11T05:31:06.223Z,31.35
2023-02-11T05:33:33.409Z,38.05
2023-02-11T05:36:08.645Z,27.93
2023-02-11T05:38:36.646Z,35.35
2023-02-11T05:41:04.942Z,36.50
2023-02-11T05:43:31.899Z,40.15
2023-02-11T05:45:58.768Z,40.97
2023-02-11T05:48:25.445Z,39.93
2023-02-11T05:50:52.610Z,42.70
2023-02-11T05:53:22.595Z,32.72
2023-02-11T05:55:50.023Z,40.42
2023-02-11T05:58:16.939Z,43.28
2023-02-11T06:00:43.642Z,37.13
2023-02-11T06:03:10.303Z,31.15
2023-02-11T06:05:36.997Z,46.78
2023-02-11T06:08:03.983Z,37.53
2023-02-11T06:10:30.709Z,36.38
2023-02-11T06:12:57.307Z,34.17
2023-02-11T06:15:23.959Z,32.03
2023-02-11T06:17:50.805Z,35.75
2023-02-11T06:20:17.689Z,43.35
2023-02-11T06:22:44.427Z,36.78
2023-02-11T06:25:11.301Z,37.83
2023-02-11T06:27:38.972Z,35.47
2023-02-11T06:30:07.362Z,32.42
2023-02-11T06:32:49.829Z,43.30
2023-02-11T06:35:16.568Z,41.58
2023-02-11T06:37:43.319Z,41.50
2023-02-11T06:40:11.326Z,41.53
2023-02-11T06:42:41.125Z,43.17
2023-02-11T06:45:11.124Z,51.17
2023-02-11T06:47:38.045Z,46.03
2023-02-11T06:50:05.903Z,44.67
2023-02-11T06:52:33.514Z,56.63
2023-02-11T06:55:00.396Z,43.15
2023-02-11T06:57:27.051Z,49.15
2023-02-11T06:59:53.825Z,47.72
2023-02-11T07:02:24.361Z,51.23
2023-02-11T07:04:51.023Z,46.65
2023-02-11T07:07:18.196Z,54.28
2023-02-11T07:09:44.959Z,41.45
2023-02-11T07:12:11.575Z,58.03
2023-02-11T07:14:38.425Z,47.50
2023-02-11T07:17:05.300Z,48.83
2023-02-11T07:19:32.414Z,50.45
2023-02-11T07:21:59.062Z,52.95
2023-02-11T07:24:25.703Z,55.25
2023-02-11T07:26:53.685Z,46.63
2023-02-11T07:29:20.634Z,50.08
2023-02-11T07:31:47.368Z,56.85
2023-02-11T07:34:14.129Z,53.72
2023-02-11T07:36:43.773Z,55.92
2023-02-11T07:39:10.481Z,50.03
2023-02-11T07:41:38.254Z,46.97
2023-02-11T07:44:05.544Z,46.30
2023-02-11T07:46:32.829Z,58.58
2023-02-11T07:48:59.519Z,45.58
2023-02-11T07:51:31.327Z,56.87
2023-02-11T07:53:59.838Z,52.95
2023-02-11T07:56:27.530Z,47.05
2023-02-11T07:58:54.630Z,56.80
2023-02-11T08:01:25.522Z,53.55
2023-02-11T08:03:53.033Z,48.17
2023-02-11T08:06:21.814Z,54.42
2023-02-11T08:08:52.647Z,53.53
2023-02-11T08:11:23.075Z,61.67
2023-02-11T08:13:50.392Z,48.40
2023-02-11T08:16:25.954Z,56.47
2023-02-11T08:18:54.075Z,67.90
2023-02-11T08:21:21.710Z,59.47
2023-02-11T08:23:49.864Z,62.55
2023-02-11T08:26:22.511Z,67.18
2023-02-11T08:28:51.909Z,53.17
2023-02-11T08:31:24.689Z,54.22
2023-02-11T08:33:51.947Z,48.05
2023-02-11T08:36:21.612Z,48.15
2023-02-11T08:38:48.444Z,63.05
2023-02-11T08:41:16.111Z,67.63
2023-02-11T08:43:44.206Z,61.92
2023-02-11T08:46:20.818Z,50.35
2023-02-11T08:48:48.205Z,57.33
2023-02-11T08:51:22.391Z,49.33
2023-02-11T08:53:52.391Z,43.90
2023-02-11T08:56:20.734Z,50.80
2023-02-11T08:58:47.788Z,51.38
2023-02-11T09:01:27.266Z,61.72
2023-02-11T09:03:54.335Z,58.58
2023-02-11T09:06:22.631Z,51.50
2023-02-11T09:08:52.408Z,47.10
2023-02-11T09:11:22.945Z,61.50
2023-02-11T09:13:54.518Z,47.20
2023-02-11T09:16:30.408Z,65.15
2023-02-11T09:18:58.824Z,53.87
2023-02-11T09:21:26.090Z,56.40
2023-02-11T09:23:53.096Z,60.13
2023-02-11T09:26:25.160Z,78.68
2023-02-11T09:28:52.166Z,53.78
2023-02-11T09:31:22.500Z,54.07
2023-02-11T09:33:51.427Z,64.90
2023-02-11T09:36:25.430Z,55.35
2023-02-11T09:38:52.910Z,58.55
2023-02-11T09:41:44.524Z,44.15
2023-02-11T09:44:28.801Z,51.67
2023-02-11T09:47:01.539Z,43.03
2023-02-11T09:49:53.727Z,48.05
2023-02-11T09:52:20.358Z,38.63
2023-02-11T09:54:56.324Z,35.53
2023-02-11T09:57:29.160Z,51.83
2023-02-11T09:59:57.767Z,61.55
2023-02-11T10:02:45.051Z,56.45
2023-02-11T10:05:47.783Z,53.03
2023-02-11T10:08:20.432Z,43.10
2023-02-11T10:10:55.675Z,41.70
2023-02-11T10:13:45.127Z,46.38
2023-02-11T10:16:23.369Z,42.28
2023-02-11T10:19:39.749Z,39.83
2023-02-11T10:22:23.044Z,43.92
2023-02-11T10:25:03.064Z,41.67
2023-02-11T10:27:33.292Z,43.22
2023-02-11T10:30:16.131Z,50.65
2023-02-11T10:32:49.066Z,46.25
2023-02-11T10:35:21.581Z,39.50
2023-02-11T10:37:48.886Z,55.97
2023-02-11T10:40:22.151Z,39.20
2023-02-11T10:42:55.705Z,42.90
2023-02-11T10:45:28.380Z,41.22
2023-02-11T10:47:55.463Z,43.22
2023-02-11T10:50:27.317Z,49.80
2023-02-11T10:53:17.634Z,50.08
2023-02-11T10:55:54.312Z,47.08
2023-02-11T10:58:30.828Z,47.90
2023-02-11T11:01:00.164Z,49.88
2023-02-11T11:03:32.261Z,48.40
2023-02-11T11:06:02.183Z,50.03
2023-02-11T11:08:48.592Z,47.28
2023-02-11T11:11:24.114Z,54.72
2023-02-11T11:13:53.708Z,40.17
2023-02-11T11:16:25.372Z,39.57
2023-02-11T11:19:08.394Z,40.78
2023-02-11T11:22:01.364Z,45.40
2023-02-11T11:24:45.373Z,46.10
2023-02-11T11:27:19.633Z,42.85
2023-02-11T11:29:52.987Z,38.57
2023-02-11T11:32:32.764Z,37.70
2023-02-11T11:35:08.503Z,41.17
2023-02-11T11:37:37.200Z,44.08
2023-02-11T11:40:16.049Z,37.53
2023-02-11T11:42:43.230Z,40.07
2023-02-11T11:45:10.196Z,49.45
2023-02-11T11:47:52.617Z,43.50
2023-02-11T11:50:33.894Z,49.50
2023-02-11T11:53:21.559Z,42.67
2023-02-11T11:56:04.932Z,49.43
2023-02-11T11:58:32.402Z,38.90
2023-02-11T12:01:48.077Z,40.67
2023-02-11T12:04:26.888Z,38.30
2023-02-11T12:07:14.343Z,37.33
2023-02-11T12:10:08.692Z,44.07
2023-02-11T12:12:57.357Z,44.00
2023-02-11T12:15:36.664Z,38.00
2023-02-11T12:18:18.033Z,43.35
2023-02-11T12:20:47.727Z,40.53
2023-02-11T12:23:33.261Z,40.10
2023-02-11T12:26:23.310Z,42.17
2023-02-11T12:29:06.250Z,42.45
2023-02-11T12:31:47.012Z,48.78
2023-02-11T12:34:29.264Z,42.70
2023-02-11T12:37:01.355Z,41.37
2023-02-11T12:39:57.162Z,41.35
2023-02-11T12:43:02.807Z,34.60
2023-02-11T12:45:38.252Z,45.22
2023-02-11T12:48:23.018Z,33.80
2023-02-11T12:51:21.089Z,41.60
2023-02-11T12:54:05.299Z,44.00
2023-02-11T12:56:41.341Z,38.60
2023-02-11T12:59:17.947Z,37.58
2023-02-11T13:01:45.261Z,39.95
2023-02-11T13:04:25.628Z,41.53
2023-02-11T13:06:57.820Z,36.47
2023-02-11T13:09:49.116Z,35.17
2023-02-11T13:12:35.609Z,34.75
2023-02-11T13:15:09.906Z,32.45
2023-02-11T13:18:03.003Z,35.30
2023-02-11T13:20:45.472Z,30.00
2023-02-11T13:23:12.057Z,36.55
2023-02-11T13:25:54.990Z,31.38
2023-02-11T13:28:32.626Z,32.92
2023-02-11T13:31:04.097Z,34.93
2023-02-11T13:33:33.349Z,25.60
2023-02-11T13:36:00.703Z,38.65
2023-02-11T13:38:30.728Z,30.80
2023-02-11T13:41:06.937Z,29.13
2023-02-11T13:43:35.740Z,34.63
2023-02-11T13:46:12.434Z,30.38
2023-02-11T13:48:46.797Z,28.75
2023-02-11T13:51:17.634Z,31.00
2023-02-11T13:54:03.715Z,35.75
2023-02-11T13:56:32.426Z,32.37
2023-02-11T13:59:04.608Z,31.92
2023-02-11T14:02:12.527Z,25.67
2023-02-11T14:05:22.974Z,25.58
2023-02-11T14:08:29.495Z,28.33
2023-02-11T14:11:03.039Z,34.47
2023-02-11T14:13:31.121Z,24.95
2023-02-11T14:16:13.603Z,30.88
2023-02-11T14:18:52.409Z,27.88
2023-02-11T14:21:29.061Z,31.10
2023-02-11T14:24:01.495Z,26.27
2023-02-11T14:26:49.731Z,33.40
2023-02-11T14:29:24.617Z,23.52
2023-02-11T14:31:54.382Z,25.90
2023-02-11T14:34:26.825Z,29.42
2023-02-11T14:37:23.730Z,23.30
2023-02-11T14:39:59.453Z,26.70
2023-02-11T14:42:29.275Z,29.30
2023-02-11T14:45:03.322Z,24.55
2023-02-11T14:47:43.447Z,35.72
2023-02-11T14:50:22.461Z,24.83
2023-02-11T14:52:50.295Z,20.52
2023-02-11T14:55:29.582Z,28.38
2023-02-11T14:58:15.078Z,19.65
2023-02-11T15:01:01.847Z,23.05
2023-02-11T15:03:41.636Z,17.50
2023-02-11T15:06:36.818Z,21.40
2023-02-11T15:09:16.758Z,22.67
2023-02-11T15:11:46.496Z,18.55
2023-02-11T15:14:30.078Z,21.85
2023-02-11T15:17:01.356Z,19.60
2023-02-11T15:19:35.846Z,21.05
2023-02-11T15:22:05.885Z,20.70
2023-02-11T15:24:35.605Z,22.27
2023-02-11T15:27:12.823Z,25.95
2023-02-11T15:29:50.055Z,20.63
2023-02-11T15:32:20.324Z,20.40
2023-02-11T15:34:48.748Z,26.45
2023-02-11T15:37:25.953Z,24.55
2023-02-11T15:39:54.080Z,21.33
2023-02-11T15:42:25.080Z,20.60
2023-02-11T15:45:13.827Z,21.52
2023-02-11T15:47:48.813Z,24.83
2023-02-11T15:50:30.963Z,27.23
2023-02-11T15:53:03.235Z,22.40
2023-02-11T15:55:30.358Z,22.33
2023-02-11T15:58:02.866Z,24.10
2023-02-11T16:00:36.337Z,28.38
2023-02-11T16:03:03.551Z,46.20
2023-02-11T16:05:34.395Z,64.50
2023-02-11T16:08:12.561Z,24.20
2023-02-11T16:10:39.433Z,20.27
2023-02-11T16:13:06.179Z,26.88
2023-02-11T16:16:02.467Z,22.80
2023-02-11T16:18:38.755Z,24.27
2023-02-11T16:21:16.012Z,22.70
2023-02-11T16:23:43.684Z,23.65
2023-02-11T16:26:23.005Z,23.15
2023-02-11T16:28:53.440Z,25.17
2023-02-11T16:31:20.545Z,21.27
2023-02-11T16:33:47.708Z,24.50
2023-02-11T16:36:19.123Z,16.90
2023-02-11T16:38:45.731Z,23.65
2023-02-11T16:41:12.848Z,17.95
2023-02-11T16:43:40.217Z,27.02
2023-02-11T16:46:06.945Z,22.90
2023-02-11T16:48:33.906Z,21.80
2023-02-11T16:51:01.016Z,23.52
2023-02-11T16:53:27.749Z,24.33
2023-02-11T16:55:54.772Z,18.20
2023-02-11T16:58:21.660Z,19.33
2023-02-11T17:00:48.966Z,21.67
2023-02-11T17:03:21.872Z,18.63
2023-02-11T17:05:55.462Z,20.70
2023-02-11T17:08:22.966Z,19.08
2023-02-11T17:10:50.421Z,25.53
2023-02-11T17:13:17.299Z,21.15
2023-02-11T17:15:44.117Z,22.00
2023-02-11T17:18:14.594Z,24.58
2023-02-11T17:20:42.226Z,21.25
2023-02-11T17:23:09.206Z,20.33
2023-02-11T17:25:39.322Z,26.63
2023-02-11T17:28:06.585Z,17.73
2023-02-11T17:30:33.286Z,16.88
2023-02-11T17:33:00.172Z,18.88
2023-02-11T17:35:27.065Z,25.50
2023-02-11T17:37:54.180Z,15.60
2023-02-11T17:40:22.333Z,19.85
2023-02-11T17:42:49.098Z,18.83
2023-02-11T17:45:15.947Z,22.40
2023-02-11T17:47:42.757Z,17.40
2023-02-11T17:50:10.438Z,17.20
2023-02-11T17:52:37.985Z,21.67
2023-02-11T17:55:05.880Z,19.17
2023-02-11T17:57:32.889Z,19.10
2023-02-11T17:59:59.506Z,23.03
2023-02-11T18:02:27.112Z,16.63
2023-02-11T18:04:55.592Z,19.40
2023-02-11T18:07:22.255Z,17.92
2023-02-11T18:09:48.953Z,21.70
2023-02-11T18:12:18.022Z,24.87
2023-02-11T18:14:45.155Z,23.25
2023-02-11T18:17:11.899Z,20.77
2023-02-11T18:19:38.779Z,19.15
2023-02-11T18:22:05.664Z,20.60
2023-02-11T18:24:32.378Z,17.27
2023-02-11T18:26:59.132Z,12.50
2023-02-11T18:29:25.887Z,15.05
2023-02-11T18:31:55.908Z,12.82
2023-02-11T18:34:22.828Z,14.30
2023-02-11T18:36:50.169Z,25.40
2023-02-11T18:39:18.660Z,19.40
2023-02-11T18:41:46.007Z,13.50
2023-02-11T18:44:14.250Z,14.55
2023-02-11T18:46:41.304Z,18.25
2023-02-11T18:49:09.909Z,16.10
2023-02-11T18:51:36.953Z,13.82
2023-02-11T18:54:03.782Z,13.85
2023-02-11T18:56:30.533Z,13.05
2023-02-11T18:58:58.588Z,20.38
2023-02-11T19:01:27.467Z,18.83
2023-02-11T19:03:56.487Z,15.30
2023-02-11T19:06:27.702Z,13.55
2023-02-11T19:08:59.516Z,12.80
2023-02-11T19:11:47.269Z,14.57
2023-02-11T19:14:15.686Z,13.70
2023-02-11T19:16:43.528Z,14.40
2023-02-11T19:19:10.509Z,15.70
2023-02-11T19:21:37.260Z,26.30
2023-02-11T19:24:08.017Z,13.85
2023-02-11T19:26:35.186Z,11.60
2023-02-11T19:29:02.427Z,14.82
2023-02-11T19:31:32.242Z,12.43
2023-02-11T19:33:59.786Z,11.27
2023-02-11T19:36:26.516Z,10.50
2023-02-11T19:38:53.849Z,11.23
2023-02-11T19:41:23.101Z,14.30
2023-02-11T19:43:53.026Z,11.40
2023-02-11T19:46:21.318Z,12.95
2023-02-11T19:48:49.282Z,15.93
2023-02-11T19:51:16.384Z,24.07
2023-02-11T19:53:44.032Z,13.95
2023-02-11T19:56:11.531Z,15.95
2023-02-11T19:58:39.086Z,12.27
2023-02-11T20:01:08.555Z,9.70
2023-02-11T20:03:35.914Z,14.20
2023-02-11T20:06:13.204Z,13.65
2023-02-11T20:08:40.539Z,10.60
2023-02-11T20:11:16.601Z,12.15
2023-02-11T20:13:44.224Z,9.30
2023-02-11T20:16:19.038Z,13.57
2023-02-11T20:18:48.119Z,13.50
2023-02-11T20:21:19.973Z,15.38
2023-02-11T20:23:48.734Z,16.40
2023-02-11T20:26:30.318Z,13.93
2023-02-11T20:28:58.912Z,10.90
2023-02-11T20:31:25.566Z,11.93
2023-02-11T20:33:52.474Z,12.10
2023-02-11T20:36:21.962Z,13.95
2023-02-11T20:38:49.911Z,19.45
2023-02-11T20:41:22.662Z,15.83
2023-02-11T20:43:53.288Z,19.63
2023-02-11T20:46:23.216Z,20.42
2023-02-11T20:48:50.907Z,12.00
2023-02-11T20:51:21.339Z,13.85
2023-02-11T20:53:51.099Z,14.67
2023-02-11T20:56:23.597Z,15.52
2023-02-11T20:58:50.947Z,12.57
2023-02-11T21:01:19.162Z,12.68
2023-02-11T21:03:52.108Z,14.65
2023-02-11T21:06:20.493Z,11.57
2023-02-11T21:08:47.353Z,13.57
2023-02-11T21:11:14.397Z,16.75
2023-02-11T21:13:42.752Z,13.98
2023-02-11T21:16:15.709Z,14.80
2023-02-11T21:18:43.017Z,15.33
2023-02-11T21:21:09.972Z,20.85
2023-02-11T21:23:38.135Z,18.92
2023-02-11T21:26:05.141Z,16.15
2023-02-11T21:28:32.019Z,15.38
2023-02-11T21:30:59.467Z,15.27
2023-02-11T21:33:27.436Z,15.77
2023-02-11T21:35:58.655Z,18.13
2023-02-11T21:38:26.146Z,19.15
2023-02-11T21:40:53.139Z,45.53
2023-02-11T21:43:20.690Z,16.67
2023-02-11T21:45:49.936Z,19.85
2023-02-11T21:48:17.864Z,21.13
2023-02-11T21:50:46.750Z,22.50
2023-02-11T21:53:14.775Z,19.90
2023-02-11T21:55:41.640Z,35.10
2023-02-11T21:58:08.453Z,25.98
2023-02-11T22:00:35.196Z,22.40
2023-02-11T22:03:01.940Z,24.33
2023-02-11T22:05:28.622Z,20.90
2023-02-11T22:07:55.377Z,26.37
2023-02-11T22:10:24.100Z,25.92
2023-02-11T22:12:50.843Z,28.48
2023-02-11T22:15:17.677Z,32.63
2023-02-11T22:17:44.337Z,27.48
2023-02-11T22:20:11.312Z,34.67
2023-02-11T22:22:39.077Z,30.92
2023-02-11T22:25:05.922Z,31.83
2023-02-11T22:27:32.506Z,29.35
2023-02-11T22:29:59.321Z,36.33
2023-02-11T22:32:26.085Z,36.17
2023-02-11T22:34:53.484Z,35.40
2023-02-11T22:37:20.880Z,25.58
2023-02-11T22:39:47.735Z,29.70
2023-02-11T22:42:14.404Z,31.10
2023-02-11T22:44:41.320Z,29.87
2023-02-11T22:47:08.072Z,28.35
2023-02-11T22:49:35.752Z,25.40
2023-02-11T22:52:03.943Z,37.15
2023-02-11T22:54:31.451Z,29.52
2023-02-11T22:56:58.148Z,30.57
2023-02-11T22:59:25.615Z,52.38
2023-02-11T23:01:52.452Z,92.95
2023-02-11T23:04:19.554Z,52.97
2023-02-11T23:06:47.671Z,34.13
2023-02-11T23:09:14.337Z,43.83
2023-02-11T23:11:44.475Z,31.80
2023-02-11T23:14:12.319Z,54.78
2023-02-11T23:16:39.186Z,51.42
2023-02-11T23:19:09.081Z,36.90
2023-02-11T23:21:38.279Z,39.40
2023-02-11T23:24:12.288Z,38.28
2023-02-11T23:26:40.873Z,27.30
2023-02-11T23:29:08.397Z,29.92
2023-02-11T23:31:39.808Z,25.45
2023-02-11T23:34:08.189Z,27.23
2023-02-11T23:36:34.895Z,29.58
2023-02-11T23:39:01.926Z,24.85
2023-02-11T23:41:28.710Z,28.48
2023-02-11T23:43:57.235Z,24.75
2023-02-11T23:46:25.195Z,26.20
2023-02-11T23:48:52.417Z,26.27
2023-02-11T23:51:19.476Z,25.27
2023-02-11T23:53:46.570Z,26.08
2023-02-11T23:56:18.970Z,28.52
2023-02-11T23:58:48.843Z,27.07
